createdAt,value
2023-02-24T00:02:07.515Z,92278.63
2023-02-24T00:04:39.427Z,92283.03
2023-02-24T00:07:08.264Z,92283.03
2023-02-24T00:09:34.709Z,92281.47
2023-02-24T00:12:11.326Z,92280.44
2023-02-24T00:14:40.840Z,92285.16
2023-02-24T00:17:08.193Z,92279.97
2023-02-24T00:19:35.782Z,92287.56
2023-02-24T00:22:04.649Z,92286.19
2023-02-24T00:24:31.635Z,92277.28
2023-02-24T00:27:00.897Z,92278.16
2023-02-24T00:29:29.027Z,92272.97
2023-02-24T00:32:01.033Z,92273.44
2023-02-24T00:34:33.930Z,92276.03
2023-02-24T00:37:01.422Z,92272.31
2023-02-24T00:39:30.121Z,92274.00
2023-02-24T00:42:04.464Z,92273.69
2023-02-24T00:44:40.535Z,92267.69
2023-02-24T00:47:10.236Z,92272.97
2023-02-24T00:49:43.353Z,92264.41
2023-02-24T00:52:16.303Z,92262.16
2023-02-24T00:54:44.351Z,92259.78
2023-02-24T00:57:12.091Z,92259.00
2023-02-24T00:59:39.561Z,92256.63
2023-02-24T01:02:11.353Z,92254.38
2023-02-24T01:04:37.938Z,92251.44
2023-02-24T01:07:10.559Z,92251.09
2023-02-24T01:09:39.605Z,92244.59
2023-02-24T01:12:34.329Z,92243.09
2023-02-24T01:15:02.993Z,92234.22
2023-02-24T01:17:29.422Z,92229.22
2023-02-24T01:20:00.196Z,92225.28
2023-02-24T01:22:26.640Z,92230.25
2023-02-24T01:24:53.284Z,92220.09
2023-02-24T01:27:19.814Z,92218.50
2023-02-24T01:29:49.559Z,92219.06
2023-02-24T01:32:19.536Z,92217.06
2023-02-24T01:34:47.122Z,92216.16
2023-02-24T01:37:16.659Z,92218.41
2023-02-24T01:39:44.540Z,92209.81
2023-02-24T01:42:16.600Z,92206.34
2023-02-24T01:44:43.583Z,92198.78
2023-02-24T01:47:11.545Z,92200.47
2023-02-24T01:49:42.555Z,92194.72
2023-02-24T01:52:23.877Z,92198.13
2023-02-24T01:54:56.278Z,92193.72
2023-02-24T01:57:25.854Z,92194.16
2023-02-24T01:59:54.613Z,92193.94
2023-02-24T02:02:23.249Z,92188.78
2023-02-24T02:04:57.026Z,92192.84
2023-02-24T02:07:27.595Z,92193.59
2023-02-24T02:09:55.083Z,92186.28
2023-02-24T02:12:24.254Z,92180.75
2023-02-24T02:14:54.830Z,92175.81
2023-02-24T02:17:46.882Z,92179.41
2023-02-24T02:20:28.860Z,92183.59
2023-02-24T02:23:11.232Z,92176.69
2023-02-24T02:25:56.367Z,92171.19
2023-02-24T02:29:06.485Z,92169.47
2023-02-24T02:31:55.296Z,92170.06
2023-02-24T02:34:45.228Z,92165.44
2023-02-24T02:37:33.065Z,92172.75
2023-02-24T02:40:15.630Z,92177.25
2023-02-24T02:42:51.034Z,92180.28
2023-02-24T02:45:36.201Z,92181.88
2023-02-24T02:48:13.543Z,92184.00
2023-02-24T02:50:55.748Z,92177.50
2023-02-24T02:53:28.709Z,92178.72
2023-02-24T02:56:03.456Z,92173.09
2023-02-24T02:58:36.150Z,92176.38
2023-02-24T03:01:07.093Z,92173.53
2023-02-24T03:03:42.674Z,92175.34
2023-02-24T03:06:32.167Z,92169.47
2023-02-24T03:09:12.216Z,92169.72
2023-02-24T03:11:41.583Z,92167.69
2023-02-24T03:14:12.102Z,92160.94
2023-02-24T03:16:46.036Z,92158.53
2023-02-24T03:19:15.268Z,92165.56
2023-02-24T03:21:51.825Z,92157.31
2023-02-24T03:24:18.351Z,92157.78
2023-02-24T03:26:56.076Z,92152.03
2023-02-24T03:29:54.977Z,92150.44
2023-02-24T03:32:33.538Z,92152.25
2023-02-24T03:35:07.228Z,92146.72
2023-02-24T03:37:33.863Z,92155.50
2023-02-24T03:40:14.673Z,92149.53
2023-02-24T03:42:45.976Z,92150.22
2023-02-24T03:45:13.111Z,92151.22
2023-02-24T03:47:41.165Z,92148.38
2023-02-24T03:50:13.965Z,92150.00
2023-02-24T03:52:59.466Z,92152.13
2023-02-24T03:55:58.603Z,92150.00
2023-02-24T03:58:48.524Z,92147.63
2023-02-24T04:01:41.895Z,92135.78
2023-02-24T04:04:38.112Z,92143.09
2023-02-24T04:07:26.353Z,92140.50
2023-02-24T04:10:09.271Z,92135.88
2023-02-24T04:12:47.034Z,92136.25
2023-02-24T04:15:29.730Z,92134.91
2023-02-24T04:18:01.106Z,92132.06
2023-02-24T04:20:35.132Z,92130.50
2023-02-24T04:23:14.804Z,92128.47
2023-02-24T04:25:45.242Z,92126.31
2023-02-24T04:28:13.365Z,92121.69
2023-02-24T04:30:48.386Z,92116.31
2023-02-24T04:33:15.542Z,92111.88
2023-02-24T04:35:45.725Z,92112.44
2023-02-24T04:38:12.700Z,92112.44
2023-02-24T04:40:40.815Z,92110.88
2023-02-24T04:43:07.807Z,92103.09
2023-02-24T04:45:34.702Z,92097.34
2023-02-24T04:48:03.063Z,92090.28
2023-02-24T04:50:35.164Z,92084.75
2023-02-24T04:53:09.357Z,92083.41
2023-02-24T04:55:50.042Z,92085.44
2023-02-24T04:58:20.849Z,92085.09
2023-02-24T05:00:52.499Z,92068.53
2023-02-24T05:03:20.472Z,92067.41
2023-02-24T05:05:52.236Z,92065.47
2023-02-24T05:08:19.789Z,92067.19
2023-02-24T05:10:46.896Z,92065.63
2023-02-24T05:13:22.201Z,92065.06
2023-02-24T05:15:49.604Z,92060.31
2023-02-24T05:18:17.476Z,92061.88
2023-02-24T05:21:07.721Z,92057.41
2023-02-24T05:23:39.973Z,92052.09
2023-02-24T05:26:09.121Z,92051.88
2023-02-24T05:28:37.518Z,92044.78
2023-02-24T05:31:09.175Z,92049.19
2023-02-24T05:33:37.746Z,92044.00
2023-02-24T05:36:06.754Z,92043.00
2023-02-24T05:38:37.846Z,92039.59
2023-02-24T05:41:16.709Z,92041.88
2023-02-24T05:43:55.004Z,92046.47
2023-02-24T05:46:33.691Z,92043.31
2023-02-24T05:49:04.227Z,92042.75
2023-02-24T05:51:35.333Z,92041.53
2023-02-24T05:54:07.221Z,92034.41
2023-02-24T05:56:35.492Z,92038.38
2023-02-24T05:59:03.814Z,92035.09
2023-02-24T06:01:33.031Z,92033.28
2023-02-24T06:04:05.887Z,92036.56
2023-02-24T06:06:35.102Z,92034.97
2023-02-24T06:09:10.545Z,92032.84
2023-02-24T06:11:38.475Z,92028.22
2023-02-24T06:14:07.111Z,92025.06
2023-02-24T06:16:34.895Z,92028.78
2023-02-24T06:19:01.685Z,92029.34
2023-02-24T06:21:29.881Z,92025.19
2023-02-24T06:24:00.776Z,92026.09
2023-02-24T06:26:33.518Z,92028.00
2023-02-24T06:29:00.064Z,92025.19
2023-02-24T06:31:27.433Z,92028.00
2023-02-24T06:33:53.961Z,92024.97
2023-02-24T06:36:21.064Z,92013.25
2023-02-24T06:38:49.365Z,92016.28
2023-02-24T06:41:16.212Z,92015.84
2023-02-24T06:43:44.894Z,92009.06
2023-02-24T06:46:13.738Z,92008.75
2023-02-24T06:48:40.193Z,92011.91
2023-02-24T06:51:08.480Z,92009.88
2023-02-24T06:53:35.807Z,92008.50
2023-02-24T06:56:14.686Z,92013.00
2023-02-24T06:58:45.525Z,92022.44
2023-02-24T07:01:13.757Z,92030.22
2023-02-24T07:03:41.050Z,92022.31
2023-02-24T07:06:20.387Z,92032.00
2023-02-24T07:08:47.956Z,92025.59
2023-02-24T07:11:17.506Z,92025.34
2023-02-24T07:13:44.569Z,92023.41
2023-02-24T07:16:12.038Z,92016.97
2023-02-24T07:18:41.657Z,92021.25
2023-02-24T07:21:16.162Z,92020.25
2023-02-24T07:23:45.213Z,92015.94
2023-02-24T07:26:16.998Z,92028.31
2023-02-24T07:28:45.116Z,92019.94
2023-02-24T07:31:13.895Z,92017.91
2023-02-24T07:33:41.069Z,92016.44
2023-02-24T07:36:08.626Z,92019.03
2023-02-24T07:38:39.131Z,92011.09
2023-02-24T07:41:06.872Z,92009.59
2023-02-24T07:43:43.982Z,92002.53
2023-02-24T07:46:13.841Z,91998.44
2023-02-24T07:48:41.994Z,91998.84
2023-02-24T07:51:17.405Z,91996.09
2023-02-24T07:53:44.088Z,91991.06
2023-02-24T07:56:13.667Z,91995.84
2023-02-24T07:58:59.058Z,91989.78
2023-02-24T08:01:30.098Z,91985.22
2023-02-24T08:04:01.429Z,91966.78
2023-02-24T08:06:39.518Z,91971.81
2023-02-24T08:09:17.508Z,91964.66
2023-02-24T08:11:52.082Z,91959.19
2023-02-24T08:14:24.768Z,91961.34
2023-02-24T08:16:59.175Z,91960.88
2023-02-24T08:19:39.611Z,91952.81
2023-02-24T08:22:20.767Z,91951.56
2023-02-24T08:24:54.933Z,91951.06
2023-02-24T08:27:24.060Z,91945.66
2023-02-24T08:29:58.133Z,91945.66
2023-02-24T08:32:25.877Z,91948.72
2023-02-24T08:34:56.705Z,91949.88
2023-02-24T08:37:25.266Z,91935.38
2023-02-24T08:39:54.000Z,91928.66
2023-02-24T08:42:27.327Z,91932.38
2023-02-24T08:44:53.757Z,91924.34
2023-02-24T08:47:24.257Z,91924.63
2023-02-24T08:49:53.673Z,91916.88
2023-02-24T08:52:20.297Z,91914.41
2023-02-24T08:54:49.098Z,91913.94
2023-02-24T08:57:18.080Z,91922.28
2023-02-24T08:59:49.948Z,91916.59
2023-02-24T09:02:29.102Z,91917.41
2023-02-24T09:04:57.330Z,91921.88
2023-02-24T09:07:36.242Z,91910.41
2023-02-24T09:10:05.522Z,91915.13
2023-02-24T09:12:31.940Z,91915.66
2023-02-24T09:15:02.129Z,91913.84
2023-02-24T09:17:45.239Z,91916.44
2023-02-24T09:20:42.805Z,91909.91
2023-02-24T09:23:19.927Z,91923.22
2023-02-24T09:25:50.292Z,91917.72
2023-02-24T09:28:19.840Z,91912.41
2023-02-24T09:30:53.230Z,91909.78
2023-02-24T09:33:28.934Z,91908.22
2023-02-24T09:36:10.693Z,91912.91
2023-02-24T09:39:01.343Z,91911.59
2023-02-24T09:41:54.408Z,91905.63
2023-02-24T09:44:26.923Z,91910.81
2023-02-24T09:47:00.312Z,91907.38
2023-02-24T09:49:39.911Z,91904.94
2023-02-24T09:52:17.449Z,91900.50
2023-02-24T09:55:15.636Z,91895.50
2023-02-24T09:58:08.292Z,91904.41
2023-02-24T10:00:43.950Z,91904.66
2023-02-24T10:03:29.972Z,91897.56
2023-02-24T10:06:12.035Z,91891.41
2023-02-24T10:08:42.693Z,91893.34
2023-02-24T10:11:13.562Z,91882.88
2023-02-24T10:13:49.723Z,91881.72
2023-02-24T10:16:23.850Z,91874.91
2023-02-24T10:19:11.639Z,91878.22
2023-02-24T10:22:03.313Z,91882.59
2023-02-24T10:24:47.263Z,91876.25
2023-02-24T10:27:43.827Z,91872.53
2023-02-24T10:30:20.766Z,91872.53
2023-02-24T10:33:00.066Z,91859.41
2023-02-24T10:35:33.467Z,91861.44
2023-02-24T10:38:05.265Z,91853.31
2023-02-24T10:40:56.051Z,91856.25
2023-02-24T10:43:30.261Z,91843.91
2023-02-24T10:46:06.032Z,91832.34
2023-02-24T10:48:41.840Z,91834.66
2023-02-24T10:51:20.554Z,91829.31
2023-02-24T10:54:10.130Z,91825.03
2023-02-24T10:56:44.880Z,91827.50
2023-02-24T10:59:25.228Z,91821.81
2023-02-24T11:02:29.239Z,91821.94
2023-02-24T11:05:04.636Z,91818.47
2023-02-24T11:07:52.411Z,91820.13
2023-02-24T11:10:42.597Z,91815.44
2023-02-24T11:13:34.645Z,91804.59
2023-02-24T11:16:19.982Z,91813.41
2023-02-24T11:18:50.005Z,91797.34
2023-02-24T11:21:17.436Z,91787.72
2023-02-24T11:23:51.531Z,91785.03
2023-02-24T11:26:23.151Z,91769.41
2023-02-24T11:28:57.170Z,91770.69
2023-02-24T11:31:54.092Z,91773.38
2023-02-24T11:34:49.459Z,91774.88
2023-02-24T11:37:43.504Z,91776.22
2023-02-24T11:40:23.042Z,91775.44
2023-02-24T11:43:01.376Z,91767.53
2023-02-24T11:45:40.471Z,91771.50
2023-02-24T11:48:15.927Z,91761.56
2023-02-24T11:51:12.378Z,91750.19
2023-02-24T11:53:52.942Z,91749.16
2023-02-24T11:56:36.290Z,91748.19
2023-02-24T11:59:29.391Z,91744.41
2023-02-24T12:02:04.289Z,91735.97
2023-02-24T12:04:44.323Z,91735.09
2023-02-24T12:07:21.930Z,91734.00
2023-02-24T12:10:07.004Z,91736.19
2023-02-24T12:12:57.459Z,91729.00
2023-02-24T12:15:29.699Z,91738.00
2023-02-24T12:18:24.294Z,91718.38
2023-02-24T12:20:56.047Z,91723.84
2023-02-24T12:23:30.444Z,91728.34
2023-02-24T12:26:09.063Z,91726.66
2023-02-24T12:28:56.912Z,91715.25
2023-02-24T12:31:54.171Z,91720.03
2023-02-24T12:34:36.716Z,91711.75
2023-02-24T12:37:16.602Z,91711.69
2023-02-24T12:40:05.092Z,91695.84
2023-02-24T12:42:44.122Z,91702.66
2023-02-24T12:45:32.448Z,91700.03
2023-02-24T12:48:24.594Z,91689.25
2023-02-24T12:51:09.562Z,91696.69
2023-02-24T12:54:00.999Z,91695.47
2023-02-24T12:56:37.995Z,91692.34
2023-02-24T12:59:08.425Z,91690.22
2023-02-24T13:01:48.973Z,91684.53
2023-02-24T13:04:42.680Z,91677.34
2023-02-24T13:07:28.972Z,91684.75
2023-02-24T13:10:07.713Z,91680.53
2023-02-24T13:12:43.373Z,91679.47
2023-02-24T13:15:22.147Z,91680.84
2023-02-24T13:17:51.654Z,91666.22
2023-02-24T13:20:36.755Z,91655.81
2023-02-24T13:23:18.462Z,91656.06
2023-02-24T13:25:51.957Z,91652.66
2023-02-24T13:28:25.528Z,91650.19
2023-02-24T13:31:18.175Z,91647.88
2023-02-24T13:33:44.964Z,91652.84
2023-02-24T13:36:21.428Z,91654.50
2023-02-24T13:38:50.942Z,91644.09
2023-02-24T13:41:33.560Z,91642.59
2023-02-24T13:44:22.413Z,91644.06
2023-02-24T13:46:58.428Z,91643.81
2023-02-24T13:49:54.984Z,91639.31
2023-02-24T13:52:34.491Z,91627.66
2023-02-24T13:55:18.697Z,91632.28
2023-02-24T13:58:00.061Z,91623.25
2023-02-24T14:00:38.602Z,91610.53
2023-02-24T14:03:11.608Z,91618.19
2023-02-24T14:05:41.035Z,91618.16
2023-02-24T14:08:07.659Z,91614.06
2023-02-24T14:10:36.833Z,91608.41
2023-02-24T14:13:07.907Z,91611.72
2023-02-24T14:15:34.754Z,91603.66
2023-02-24T14:18:04.052Z,91601.81
2023-02-24T14:20:35.301Z,91596.66
2023-02-24T14:23:01.944Z,91591.56
2023-02-24T14:25:38.028Z,91590.38
2023-02-24T14:28:04.646Z,91586.09
2023-02-24T14:30:37.796Z,91591.53
2023-02-24T14:33:06.916Z,91588.34
2023-02-24T14:35:46.518Z,91580.59
2023-02-24T14:38:36.012Z,91584.09
2023-02-24T14:41:05.954Z,91581.81
2023-02-24T14:43:34.980Z,91566.56
2023-02-24T14:46:08.316Z,91580.47
2023-02-24T14:48:35.315Z,91569.47
2023-02-24T14:51:09.746Z,91584.53
2023-02-24T14:53:50.773Z,91571.06
2023-02-24T14:56:20.978Z,91573.81
2023-02-24T14:58:53.238Z,91560.84
2023-02-24T15:01:39.895Z,91554.44
2023-02-24T15:04:13.717Z,91552.03
2023-02-24T15:06:42.907Z,91552.66
2023-02-24T15:09:34.584Z,91539.59
2023-02-24T15:12:12.751Z,91547.00
2023-02-24T15:14:43.402Z,91541.16
2023-02-24T15:17:16.866Z,91538.13
2023-02-24T15:19:47.510Z,91539.31
2023-02-24T15:22:28.535Z,91537.81
2023-02-24T15:25:15.896Z,91538.47
2023-02-24T15:27:58.391Z,91535.91
2023-02-24T15:30:34.523Z,91536.44
2023-02-24T15:33:23.557Z,91537.47
2023-02-24T15:35:55.177Z,91532.56
2023-02-24T15:38:34.196Z,91533.03
2023-02-24T15:41:03.804Z,91530.75
2023-02-24T15:43:53.263Z,91522.25
2023-02-24T15:46:34.220Z,91532.75
2023-02-24T15:49:03.381Z,91521.63
2023-02-24T15:51:38.598Z,91513.13
2023-02-24T15:54:10.644Z,91509.72
2023-02-24T15:56:37.314Z,91505.53
2023-02-24T15:59:03.776Z,91510.50
2023-02-24T16:01:31.055Z,91507.16
2023-02-24T16:03:57.521Z,91504.41
2023-02-24T16:06:25.849Z,91510.22
2023-02-24T16:08:54.561Z,91499.94
2023-02-24T16:11:24.972Z,91503.19
2023-02-24T16:13:56.530Z,91503.69
2023-02-24T16:16:23.986Z,91500.06
2023-02-24T16:18:51.257Z,91499.63
2023-02-24T16:21:19.016Z,91501.25
2023-02-24T16:23:45.576Z,91489.22
2023-02-24T16:26:17.829Z,91490.44
2023-02-24T16:28:50.822Z,91491.81
2023-02-24T16:31:17.573Z,91483.50
2023-02-24T16:33:54.082Z,91484.56
2023-02-24T16:36:24.175Z,91498.31
2023-02-24T16:38:51.613Z,91490.47
2023-02-24T16:41:18.123Z,91490.06
2023-02-24T16:43:44.551Z,91493.75
2023-02-24T16:46:16.880Z,91497.44
2023-02-24T16:48:47.593Z,91496.94
2023-02-24T16:51:14.741Z,91501.44
2023-02-24T16:53:41.828Z,91505.56
2023-02-24T16:56:08.594Z,91494.06
2023-02-24T16:58:35.266Z,91496.25
2023-02-24T17:01:03.905Z,91487.16
2023-02-24T17:03:53.962Z,91490.41
2023-02-24T17:06:22.397Z,91491.16
2023-02-24T17:08:50.093Z,91497.19
2023-02-24T17:11:20.028Z,91493.28
2023-02-24T17:13:46.527Z,91495.16
2023-02-24T17:16:13.296Z,91502.50
2023-02-24T17:18:39.778Z,91499.50
2023-02-24T17:21:06.222Z,91499.00
2023-02-24T17:23:32.712Z,91500.94
2023-02-24T17:26:01.884Z,91503.81
2023-02-24T17:28:28.390Z,91503.78
2023-02-24T17:30:54.894Z,91508.19
2023-02-24T17:33:21.449Z,91499.38
2023-02-24T17:35:48.260Z,91501.50
2023-02-24T17:38:16.566Z,91500.50
2023-02-24T17:40:44.144Z,91502.59
2023-02-24T17:43:11.264Z,91499.44
2023-02-24T17:45:42.862Z,91497.44
2023-02-24T17:48:09.358Z,91496.38
2023-02-24T17:50:35.827Z,91495.34
2023-02-24T17:53:02.274Z,91494.28
2023-02-24T17:55:28.697Z,91497.44
2023-02-24T17:57:57.085Z,91486.03
2023-02-24T18:00:23.812Z,91489.41
2023-02-24T18:02:50.320Z,91488.34
2023-02-24T18:05:16.882Z,91484.19
2023-02-24T18:10:10.593Z,91488.00
2023-02-24T18:12:37.676Z,91488.56
2023-02-24T18:15:09.029Z,91477.63
2023-02-24T18:17:37.423Z,91469.38
2023-02-24T18:20:08.409Z,91472.69
2023-02-24T18:22:35.529Z,91482.41
2023-02-24T18:25:02.047Z,91483.94
2023-02-24T18:27:28.561Z,91484.72
2023-02-24T18:29:55.060Z,91479.53
2023-02-24T18:32:21.901Z,91479.81
2023-02-24T18:34:48.562Z,91486.88
2023-02-24T18:37:15.152Z,91500.50
2023-02-24T18:39:41.573Z,91484.28
2023-02-24T18:42:08.010Z,91499.94
2023-02-24T18:44:34.433Z,91492.66
2023-02-24T18:47:00.950Z,91490.25
2023-02-24T18:49:27.410Z,91487.13
2023-02-24T18:51:53.845Z,91491.59
2023-02-24T18:54:20.281Z,91485.44
2023-02-24T18:56:46.729Z,91471.94
2023-02-24T18:59:13.141Z,91462.59
2023-02-24T19:01:39.913Z,91468.38
2023-02-24T19:04:08.077Z,91473.34
2023-02-24T19:06:35.404Z,91467.34
2023-02-24T19:09:10.909Z,91465.00
2023-02-24T19:11:38.655Z,91465.78
2023-02-24T19:14:05.629Z,91453.31
2023-02-24T19:16:33.014Z,91448.91
2023-02-24T19:19:00.209Z,91452.00
2023-02-24T19:21:27.872Z,91459.56
2023-02-24T19:23:54.576Z,91455.63
2023-02-24T19:26:24.321Z,91460.03
2023-02-24T19:28:51.221Z,91467.91
2023-02-24T19:31:23.514Z,91448.84
2023-02-24T19:33:54.459Z,91448.03
2023-02-24T19:36:22.236Z,91448.63
2023-02-24T19:38:49.244Z,91451.47
2023-02-24T19:41:15.703Z,91445.16
2023-02-24T19:43:42.470Z,91445.16
2023-02-24T19:46:11.056Z,91431.38
2023-02-24T19:48:38.131Z,91445.97
2023-02-24T19:51:22.451Z,91447.63
2023-02-24T19:53:52.521Z,91463.28
2023-02-24T19:56:27.439Z,91467.72
2023-02-24T19:58:55.028Z,91467.44
2023-02-24T20:01:22.747Z,91468.47
2023-02-24T20:03:50.150Z,91457.00
2023-02-24T20:06:26.581Z,91469.31
2023-02-24T20:08:53.769Z,91461.97
2023-02-24T20:11:21.113Z,91451.78
2023-02-24T20:13:48.088Z,91450.78
2023-02-24T20:16:16.707Z,91453.91
2023-02-24T20:18:44.594Z,91455.47
2023-02-24T20:21:12.230Z,91455.50
2023-02-24T20:23:40.361Z,91457.59
2023-02-24T20:26:09.518Z,91459.41
2023-02-24T20:28:37.601Z,91463.31
2023-02-24T20:31:10.460Z,91456.78
2023-02-24T20:33:40.726Z,91465.13
2023-02-24T20:36:09.308Z,91473.19
2023-02-24T20:38:36.223Z,91467.78
2023-02-24T20:41:03.485Z,91474.84
2023-02-24T20:43:30.023Z,91481.09
2023-02-24T20:45:56.797Z,91498.81
2023-02-24T20:48:23.446Z,91495.41
2023-02-24T20:50:49.941Z,91503.97
2023-02-24T20:53:16.822Z,91507.88
2023-02-24T20:55:43.381Z,91520.06
2023-02-24T20:58:10.207Z,91525.94
2023-02-24T21:00:38.531Z,91532.34
2023-02-24T21:03:07.622Z,91522.38
2023-02-24T21:05:34.182Z,91527.09
2023-02-24T21:08:00.676Z,91521.13
2023-02-24T21:10:27.126Z,91526.28
2023-02-24T21:12:53.537Z,91539.94
2023-02-24T21:15:20.000Z,91545.38
2023-02-24T21:17:46.423Z,91537.69
2023-02-24T21:20:13.362Z,91534.81
2023-02-24T21:22:40.752Z,91545.13
2023-02-24T21:25:10.642Z,91542.56
2023-02-24T21:27:37.973Z,91531.63
2023-02-24T21:30:06.361Z,91532.38
2023-02-24T21:32:33.035Z,91535.19
2023-02-24T21:34:59.538Z,91543.75
2023-02-24T21:37:26.007Z,91535.72
2023-02-24T21:39:52.416Z,91547.44
2023-02-24T21:42:18.841Z,91544.03
2023-02-24T21:44:45.332Z,91546.59
2023-02-24T21:47:11.767Z,91550.69
2023-02-24T21:49:38.173Z,91551.94
2023-02-24T21:52:06.413Z,91558.06
2023-02-24T21:54:34.218Z,91551.81
2023-02-24T21:57:01.014Z,91561.41
2023-02-24T21:59:27.460Z,91560.63
2023-02-24T22:01:54.291Z,91557.59
2023-02-24T22:04:21.618Z,91550.63
2023-02-24T22:06:48.025Z,91556.03
2023-02-24T22:09:21.342Z,91554.94
2023-02-24T22:11:49.217Z,91544.75
2023-02-24T22:14:16.378Z,91546.47
2023-02-24T22:16:43.391Z,91553.34
2023-02-24T22:19:10.445Z,91550.72
2023-02-24T22:21:39.136Z,91555.00
2023-02-24T22:24:05.870Z,91563.81
2023-02-24T22:26:32.489Z,91566.06
2023-02-24T22:28:59.732Z,91553.22
2023-02-24T22:31:28.535Z,91552.59
2023-02-24T22:33:55.360Z,91558.81
2023-02-24T22:36:25.463Z,91556.22
2023-02-24T22:38:52.375Z,91569.44
2023-02-24T22:41:21.598Z,91550.44
2023-02-24T22:43:48.580Z,91548.34
2023-02-24T22:46:18.016Z,91541.31
2023-02-24T22:48:44.822Z,91555.22
2023-02-24T22:51:13.308Z,91551.16
2023-02-24T22:53:42.958Z,91551.63
2023-02-24T22:56:15.139Z,91550.69
2023-02-24T22:58:42.028Z,91545.50
2023-02-24T23:01:10.640Z,91549.38
2023-02-24T23:03:37.658Z,91544.19
2023-02-24T23:06:07.237Z,91520.41
2023-02-24T23:08:36.538Z,91525.59
2023-02-24T23:11:07.076Z,91530.22
2023-02-24T23:13:38.132Z,91535.47
2023-02-24T23:16:06.577Z,91541.00
2023-02-24T23:18:34.404Z,91543.91
2023-02-24T23:21:03.439Z,91549.59
2023-02-24T23:23:31.514Z,91565.41
2023-02-24T23:25:58.374Z,91559.22
2023-02-24T23:28:25.934Z,91557.41
2023-02-24T23:30:53.352Z,91566.22
2023-02-24T23:33:20.257Z,91560.22
2023-02-24T23:35:46.669Z,91559.47
2023-02-24T23:38:13.560Z,91556.44
2023-02-24T23:40:50.037Z,91557.53
2023-02-24T23:43:17.598Z,91539.09
2023-02-24T23:45:44.371Z,91543.91
2023-02-24T23:48:12.733Z,91541.88
2023-02-24T23:50:41.130Z,91567.28
2023-02-24T23:53:07.685Z,91561.69
2023-02-24T23:55:35.508Z,91555.41
2023-02-24T23:58:03.650Z,91544.53
